sensor_id;sensor_type;location;lat;lon;timestamp;temperature;humidity
16532;DHT22;66872;63.142;14.482;2023-03-14T00:00:58;11.80;16.70
16532;DHT22;66872;63.142;14.482;2023-03-14T00:03:23;11.80;16.70
16532;DHT22;66872;63.142;14.482;2023-03-14T00:05:49;11.80;16.70
16532;DHT22;66872;63.142;14.482;2023-03-14T00:08:15;11.80;16.80
16532;DHT22;66872;63.142;14.482;2023-03-14T00:10:41;11.80;16.60
16532;DHT22;66872;63.142;14.482;2023-03-14T00:13:06;11.80;16.80
16532;DHT22;66872;63.142;14.482;2023-03-14T00:15:35;11.80;16.70
16532;DHT22;66872;63.142;14.482;2023-03-14T00:18:01;11.80;16.70
16532;DHT22;66872;63.142;14.482;2023-03-14T00:20:27;11.80;16.70
16532;DHT22;66872;63.142;14.482;2023-03-14T00:22:53;11.80;16.60
16532;DHT22;66872;63.142;14.482;2023-03-14T00:25:18;11.80;16.30
16532;DHT22;66872;63.142;14.482;2023-03-14T00:27:44;11.80;16.50
16532;DHT22;66872;63.142;14.482;2023-03-14T00:30:12;11.80;16.60
16532;DHT22;66872;63.142;14.482;2023-03-14T00:32:37;11.80;16.70
16532;DHT22;66872;63.142;14.482;2023-03-14T00:35:04;11.80;16.90
16532;DHT22;66872;63.142;14.482;2023-03-14T00:37:30;11.80;16.50
16532;DHT22;66872;63.142;14.482;2023-03-14T00:39:55;11.80;16.70
16532;DHT22;66872;63.142;14.482;2023-03-14T00:42:21;11.80;16.40
16532;DHT22;66872;63.142;14.482;2023-03-14T00:44:47;11.80;16.60
16532;DHT22;66872;63.142;14.482;2023-03-14T00:47:12;11.80;16.70
16532;DHT22;66872;63.142;14.482;2023-03-14T00:49:38;11.80;16.80
16532;DHT22;66872;63.142;14.482;2023-03-14T00:52:04;11.80;16.70
16532;DHT22;66872;63.142;14.482;2023-03-14T00:54:29;11.80;16.90
16532;DHT22;66872;63.142;14.482;2023-03-14T00:56:55;11.80;16.70
16532;DHT22;66872;63.142;14.482;2023-03-14T00:59:21;11.80;16.70
16532;DHT22;66872;63.142;14.482;2023-03-14T01:01:47;11.80;16.70
16532;DHT22;66872;63.142;14.482;2023-03-14T01:04:13;11.80;16.60
16532;DHT22;66872;63.142;14.482;2023-03-14T01:06:39;11.80;16.40
16532;DHT22;66872;63.142;14.482;2023-03-14T01:09:04;11.80;16.40
16532;DHT22;66872;63.142;14.482;2023-03-14T01:11:32;11.80;16.30
16532;DHT22;66872;63.142;14.482;2023-03-14T01:13:59;11.80;16.30
16532;DHT22;66872;63.142;14.482;2023-03-14T01:16:26;11.70;15.80
16532;DHT22;66872;63.142;14.482;2023-03-14T01:18:53;11.80;15.90
16532;DHT22;66872;63.142;14.482;2023-03-14T01:21:24;11.80;15.90
16532;DHT22;66872;63.142;14.482;2023-03-14T01:23:52;11.80;16.10
16532;DHT22;66872;63.142;14.482;2023-03-14T01:26:19;11.80;16.10
16532;DHT22;66872;63.142;14.482;2023-03-14T01:28:47;11.70;16.00
16532;DHT22;66872;63.142;14.482;2023-03-14T01:31:14;11.80;16.00
16532;DHT22;66872;63.142;14.482;2023-03-14T01:33:40;11.70;15.80
16532;DHT22;66872;63.142;14.482;2023-03-14T01:36:07;11.70;15.70
16532;DHT22;66872;63.142;14.482;2023-03-14T01:38:37;11.70;15.70
16532;DHT22;66872;63.142;14.482;2023-03-14T01:41:03;11.70;15.50
16532;DHT22;66872;63.142;14.482;2023-03-14T01:43:29;11.70;15.70
16532;DHT22;66872;63.142;14.482;2023-03-14T01:51:14;11.70;15.80
16532;DHT22;66872;63.142;14.482;2023-03-14T01:53:42;11.70;15.90
16532;DHT22;66872;63.142;14.482;2023-03-14T01:56:11;11.70;15.80
16532;DHT22;66872;63.142;14.482;2023-03-14T01:58:41;11.70;15.90
16532;DHT22;66872;63.142;14.482;2023-03-14T02:01:07;11.70;15.80
16532;DHT22;66872;63.142;14.482;2023-03-14T02:03:44;11.70;15.90
16532;DHT22;66872;63.142;14.482;2023-03-14T02:06:12;11.70;15.90
16532;DHT22;66872;63.142;14.482;2023-03-14T02:08:40;11.70;16.00
16532;DHT22;66872;63.142;14.482;2023-03-14T02:11:06;11.70;16.10
16532;DHT22;66872;63.142;14.482;2023-03-14T02:13:32;11.70;16.00
16532;DHT22;66872;63.142;14.482;2023-03-14T02:15:58;11.70;15.90
16532;DHT22;66872;63.142;14.482;2023-03-14T02:18:24;11.70;16.00
16532;DHT22;66872;63.142;14.482;2023-03-14T02:26:36;11.70;15.90
16532;DHT22;66872;63.142;14.482;2023-03-14T02:29:04;11.70;16.30
16532;DHT22;66872;63.142;14.482;2023-03-14T02:31:29;11.70;16.30
16532;DHT22;66872;63.142;14.482;2023-03-14T02:33:56;11.70;16.50
16532;DHT22;66872;63.142;14.482;2023-03-14T02:36:23;11.70;16.50
16532;DHT22;66872;63.142;14.482;2023-03-14T02:39:19;11.70;16.40
16532;DHT22;66872;63.142;14.482;2023-03-14T02:41:41;11.60;16.00
16532;DHT22;66872;63.142;14.482;2023-03-14T02:44:07;11.70;16.20
16532;DHT22;66872;63.142;14.482;2023-03-14T02:46:33;11.60;16.40
16532;DHT22;66872;63.142;14.482;2023-03-14T02:49:07;11.60;16.30
16532;DHT22;66872;63.142;14.482;2023-03-14T02:51:33;11.60;16.40
16532;DHT22;66872;63.142;14.482;2023-03-14T02:54:00;11.60;16.50
16532;DHT22;66872;63.142;14.482;2023-03-14T02:56:25;11.60;16.40
16532;DHT22;66872;63.142;14.482;2023-03-14T02:58:51;11.60;16.20
16532;DHT22;66872;63.142;14.482;2023-03-14T03:01:17;11.60;16.20
16532;DHT22;66872;63.142;14.482;2023-03-14T03:03:42;11.60;16.30
16532;DHT22;66872;63.142;14.482;2023-03-14T03:06:08;11.60;16.40
16532;DHT22;66872;63.142;14.482;2023-03-14T03:08:34;11.60;16.30
16532;DHT22;66872;63.142;14.482;2023-03-14T03:11:00;11.60;16.10
16532;DHT22;66872;63.142;14.482;2023-03-14T03:13:25;11.60;16.10
16532;DHT22;66872;63.142;14.482;2023-03-14T03:15:52;11.60;15.90
16532;DHT22;66872;63.142;14.482;2023-03-14T03:18:18;11.60;16.00
16532;DHT22;66872;63.142;14.482;2023-03-14T03:20:43;11.60;16.00
16532;DHT22;66872;63.142;14.482;2023-03-14T03:23:09;11.60;16.10
16532;DHT22;66872;63.142;14.482;2023-03-14T03:25:35;11.60;16.20
16532;DHT22;66872;63.142;14.482;2023-03-14T03:28:01;11.60;16.30
16532;DHT22;66872;63.142;14.482;2023-03-14T03:30:26;11.60;16.10
16532;DHT22;66872;63.142;14.482;2023-03-14T03:32:52;11.60;16.00
16532;DHT22;66872;63.142;14.482;2023-03-14T03:35:18;11.60;16.10
16532;DHT22;66872;63.142;14.482;2023-03-14T03:37:43;11.60;16.20
16532;DHT22;66872;63.142;14.482;2023-03-14T03:40:09;11.60;16.30
16532;DHT22;66872;63.142;14.482;2023-03-14T03:42:36;11.60;16.70
16532;DHT22;66872;63.142;14.482;2023-03-14T03:45:02;11.60;16.60
16532;DHT22;66872;63.142;14.482;2023-03-14T03:47:30;11.60;16.30
16532;DHT22;66872;63.142;14.482;2023-03-14T03:49:56;11.60;16.10
16532;DHT22;66872;63.142;14.482;2023-03-14T03:52:22;11.60;16.00
16532;DHT22;66872;63.142;14.482;2023-03-14T03:54:48;11.50;16.00
16532;DHT22;66872;63.142;14.482;2023-03-14T03:57:13;11.50;16.20
16532;DHT22;66872;63.142;14.482;2023-03-14T03:59:39;11.60;16.20
16532;DHT22;66872;63.142;14.482;2023-03-14T04:02:06;11.50;16.20
16532;DHT22;66872;63.142;14.482;2023-03-14T04:04:32;11.50;16.30
16532;DHT22;66872;63.142;14.482;2023-03-14T04:06:57;11.50;16.50
16532;DHT22;66872;63.142;14.482;2023-03-14T04:09:23;11.50;16.80
16532;DHT22;66872;63.142;14.482;2023-03-14T04:11:49;11.50;16.30
16532;DHT22;66872;63.142;14.482;2023-03-14T04:14:15;11.50;16.40
16532;DHT22;66872;63.142;14.482;2023-03-14T04:16:40;11.50;16.40
16532;DHT22;66872;63.142;14.482;2023-03-14T04:19:06;11.50;16.60
16532;DHT22;66872;63.142;14.482;2023-03-14T04:21:32;11.50;16.80
16532;DHT22;66872;63.142;14.482;2023-03-14T04:23:57;11.50;16.10
16532;DHT22;66872;63.142;14.482;2023-03-14T04:26:23;11.50;16.30
16532;DHT22;66872;63.142;14.482;2023-03-14T04:28:49;11.50;16.10
16532;DHT22;66872;63.142;14.482;2023-03-14T04:31:18;11.50;16.00
16532;DHT22;66872;63.142;14.482;2023-03-14T04:33:44;11.50;16.00
16532;DHT22;66872;63.142;14.482;2023-03-14T04:36:10;11.50;16.40
16532;DHT22;66872;63.142;14.482;2023-03-14T04:38:36;11.50;16.40
16532;DHT22;66872;63.142;14.482;2023-03-14T04:41:02;11.50;16.30
16532;DHT22;66872;63.142;14.482;2023-03-14T04:43:28;11.50;16.60
16532;DHT22;66872;63.142;14.482;2023-03-14T04:45:54;11.50;16.40
16532;DHT22;66872;63.142;14.482;2023-03-14T04:48:19;11.50;16.30
16532;DHT22;66872;63.142;14.482;2023-03-14T04:50:46;11.50;16.20
16532;DHT22;66872;63.142;14.482;2023-03-14T04:53:13;11.50;16.40
16532;DHT22;66872;63.142;14.482;2023-03-14T04:55:38;11.50;16.30
16532;DHT22;66872;63.142;14.482;2023-03-14T04:58:04;11.50;16.40
16532;DHT22;66872;63.142;14.482;2023-03-14T05:00:30;11.50;16.60
16532;DHT22;66872;63.142;14.482;2023-03-14T05:02:56;11.50;16.10
16532;DHT22;66872;63.142;14.482;2023-03-14T05:05:22;11.50;16.30
16532;DHT22;66872;63.142;14.482;2023-03-14T05:07:47;11.50;16.20
16532;DHT22;66872;63.142;14.482;2023-03-14T05:10:13;11.50;16.00
16532;DHT22;66872;63.142;14.482;2023-03-14T05:12:39;11.50;15.90
16532;DHT22;66872;63.142;14.482;2023-03-14T05:15:05;11.50;15.70
16532;DHT22;66872;63.142;14.482;2023-03-14T05:17:32;11.50;15.80
16532;DHT22;66872;63.142;14.482;2023-03-14T05:19:58;11.50;15.80
16532;DHT22;66872;63.142;14.482;2023-03-14T05:22:24;11.50;15.80
16532;DHT22;66872;63.142;14.482;2023-03-14T05:24:50;11.50;15.80
16532;DHT22;66872;63.142;14.482;2023-03-14T05:27:16;11.50;16.30
16532;DHT22;66872;63.142;14.482;2023-03-14T05:29:41;11.50;15.80
16532;DHT22;66872;63.142;14.482;2023-03-14T05:32:07;11.50;16.00
16532;DHT22;66872;63.142;14.482;2023-03-14T05:34:32;11.50;16.00
16532;DHT22;66872;63.142;14.482;2023-03-14T05:36:58;11.50;16.30
16532;DHT22;66872;63.142;14.482;2023-03-14T05:39:24;11.50;16.00
16532;DHT22;66872;63.142;14.482;2023-03-14T05:41:50;11.50;16.10
16532;DHT22;66872;63.142;14.482;2023-03-14T05:44:16;11.50;15.50
16532;DHT22;66872;63.142;14.482;2023-03-14T05:46:42;11.50;15.70
16532;DHT22;66872;63.142;14.482;2023-03-14T05:49:07;11.50;15.50
16532;DHT22;66872;63.142;14.482;2023-03-14T05:51:33;11.50;15.40
16532;DHT22;66872;63.142;14.482;2023-03-14T05:53:59;11.50;15.50
16532;DHT22;66872;63.142;14.482;2023-03-14T05:56:24;11.50;15.40
16532;DHT22;66872;63.142;14.482;2023-03-14T05:58:50;11.50;15.50
16532;DHT22;66872;63.142;14.482;2023-03-14T06:01:16;11.50;15.40
16532;DHT22;66872;63.142;14.482;2023-03-14T06:03:41;11.50;15.40
16532;DHT22;66872;63.142;14.482;2023-03-14T06:06:07;11.50;15.30
16532;DHT22;66872;63.142;14.482;2023-03-14T06:08:33;11.50;15.30
16532;DHT22;66872;63.142;14.482;2023-03-14T06:10:59;11.50;15.30
16532;DHT22;66872;63.142;14.482;2023-03-14T06:13:27;11.50;15.20
16532;DHT22;66872;63.142;14.482;2023-03-14T06:15:53;11.50;15.30
16532;DHT22;66872;63.142;14.482;2023-03-14T06:18:18;11.50;15.20
16532;DHT22;66872;63.142;14.482;2023-03-14T06:20:44;11.50;15.50
16532;DHT22;66872;63.142;14.482;2023-03-14T06:23:10;11.60;15.40
16532;DHT22;66872;63.142;14.482;2023-03-14T06:25:36;11.60;15.30
16532;DHT22;66872;63.142;14.482;2023-03-14T06:28:03;11.60;15.30
16532;DHT22;66872;63.142;14.482;2023-03-14T06:30:28;11.60;15.00
16532;DHT22;66872;63.142;14.482;2023-03-14T06:32:54;11.60;15.10
16532;DHT22;66872;63.142;14.482;2023-03-14T06:35:21;11.60;15.10
16532;DHT22;66872;63.142;14.482;2023-03-14T06:37:47;11.60;15.00
16532;DHT22;66872;63.142;14.482;2023-03-14T06:40:13;11.70;15.30
16532;DHT22;66872;63.142;14.482;2023-03-14T06:42:44;11.70;15.10
16532;DHT22;66872;63.142;14.482;2023-03-14T06:45:10;11.70;15.00
16532;DHT22;66872;63.142;14.482;2023-03-14T06:47:36;11.70;15.10
16532;DHT22;66872;63.142;14.482;2023-03-14T06:50:04;11.70;15.10
16532;DHT22;66872;63.142;14.482;2023-03-14T06:52:30;11.70;14.90
16532;DHT22;66872;63.142;14.482;2023-03-14T06:54:55;11.80;14.90
16532;DHT22;66872;63.142;14.482;2023-03-14T06:57:21;11.80;14.80
16532;DHT22;66872;63.142;14.482;2023-03-14T06:59:47;11.80;14.70
16532;DHT22;66872;63.142;14.482;2023-03-14T07:02:13;11.80;14.60
16532;DHT22;66872;63.142;14.482;2023-03-14T07:04:39;11.80;14.60
16532;DHT22;66872;63.142;14.482;2023-03-14T07:07:04;11.90;14.70
16532;DHT22;66872;63.142;14.482;2023-03-14T07:09:31;11.90;14.60
16532;DHT22;66872;63.142;14.482;2023-03-14T07:11:56;11.90;14.50
16532;DHT22;66872;63.142;14.482;2023-03-14T07:14:22;12.00;14.70
16532;DHT22;66872;63.142;14.482;2023-03-14T07:16:48;12.00;14.40
16532;DHT22;66872;63.142;14.482;2023-03-14T07:19:13;12.00;14.20
16532;DHT22;66872;63.142;14.482;2023-03-14T07:21:39;12.10;14.20
16532;DHT22;66872;63.142;14.482;2023-03-14T07:24:05;12.10;14.10
16532;DHT22;66872;63.142;14.482;2023-03-14T07:26:30;12.10;14.00
16532;DHT22;66872;63.142;14.482;2023-03-14T07:28:56;12.20;14.10
16532;DHT22;66872;63.142;14.482;2023-03-14T07:31:22;12.20;14.00
16532;DHT22;66872;63.142;14.482;2023-03-14T07:33:48;12.20;13.90
16532;DHT22;66872;63.142;14.482;2023-03-14T07:36:13;12.30;13.90
16532;DHT22;66872;63.142;14.482;2023-03-14T07:38:39;12.40;13.90
16532;DHT22;66872;63.142;14.482;2023-03-14T07:41:05;12.40;13.80
16532;DHT22;66872;63.142;14.482;2023-03-14T07:43:32;12.50;13.80
16532;DHT22;66872;63.142;14.482;2023-03-14T07:45:58;12.50;13.70
16532;DHT22;66872;63.142;14.482;2023-03-14T07:48:24;12.60;13.70
16532;DHT22;66872;63.142;14.482;2023-03-14T07:50:52;12.70;13.60
16532;DHT22;66872;63.142;14.482;2023-03-14T07:53:18;12.70;13.50
16532;DHT22;66872;63.142;14.482;2023-03-14T07:55:45;12.80;13.40
16532;DHT22;66872;63.142;14.482;2023-03-14T07:58:12;12.80;13.60
16532;DHT22;66872;63.142;14.482;2023-03-14T08:00:38;12.90;13.70
16532;DHT22;66872;63.142;14.482;2023-03-14T08:03:04;12.90;13.40
16532;DHT22;66872;63.142;14.482;2023-03-14T08:05:29;13.00;13.40
16532;DHT22;66872;63.142;14.482;2023-03-14T08:07:55;13.00;13.30
16532;DHT22;66872;63.142;14.482;2023-03-14T08:10:21;13.00;13.30
16532;DHT22;66872;63.142;14.482;2023-03-14T08:12:51;13.10;13.30
16532;DHT22;66872;63.142;14.482;2023-03-14T08:15:18;13.10;13.30
16532;DHT22;66872;63.142;14.482;2023-03-14T08:17:44;13.20;13.40
16532;DHT22;66872;63.142;14.482;2023-03-14T08:20:11;13.20;13.40
16532;DHT22;66872;63.142;14.482;2023-03-14T08:22:38;13.30;13.40
16532;DHT22;66872;63.142;14.482;2023-03-14T08:25:04;13.30;13.30
16532;DHT22;66872;63.142;14.482;2023-03-14T08:27:30;13.40;13.40
16532;DHT22;66872;63.142;14.482;2023-03-14T08:29:55;13.40;13.20
16532;DHT22;66872;63.142;14.482;2023-03-14T08:32:21;13.50;13.00
16532;DHT22;66872;63.142;14.482;2023-03-14T08:34:49;13.50;13.40
16532;DHT22;66872;63.142;14.482;2023-03-14T08:37:14;13.50;13.30
16532;DHT22;66872;63.142;14.482;2023-03-14T08:39:40;13.60;13.50
16532;DHT22;66872;63.142;14.482;2023-03-14T08:42:06;13.60;13.60
16532;DHT22;66872;63.142;14.482;2023-03-14T08:44:31;13.60;13.80
16532;DHT22;66872;63.142;14.482;2023-03-14T08:46:57;13.70;13.50
16532;DHT22;66872;63.142;14.482;2023-03-14T08:49:23;13.70;14.20
16532;DHT22;66872;63.142;14.482;2023-03-14T08:51:48;13.80;14.30
16532;DHT22;66872;63.142;14.482;2023-03-14T08:54:14;13.90;15.00
16532;DHT22;66872;63.142;14.482;2023-03-14T08:56:40;13.90;14.10
16532;DHT22;66872;63.142;14.482;2023-03-14T08:59:06;13.90;13.90
16532;DHT22;66872;63.142;14.482;2023-03-14T09:01:32;13.90;14.20
16532;DHT22;66872;63.142;14.482;2023-03-14T09:03:57;14.00;14.20
16532;DHT22;66872;63.142;14.482;2023-03-14T09:06:23;14.00;14.70
16532;DHT22;66872;63.142;14.482;2023-03-14T09:08:49;14.00;14.50
16532;DHT22;66872;63.142;14.482;2023-03-14T09:11:14;14.00;14.50
16532;DHT22;66872;63.142;14.482;2023-03-14T09:13:41;14.00;14.60
16532;DHT22;66872;63.142;14.482;2023-03-14T09:16:07;14.00;14.60
16532;DHT22;66872;63.142;14.482;2023-03-14T09:18:33;14.10;15.00
16532;DHT22;66872;63.142;14.482;2023-03-14T09:20:58;14.10;14.90
16532;DHT22;66872;63.142;14.482;2023-03-14T09:23:24;14.10;14.70
16532;DHT22;66872;63.142;14.482;2023-03-14T09:25:58;14.10;16.40
16532;DHT22;66872;63.142;14.482;2023-03-14T09:28:24;14.10;14.80
16532;DHT22;66872;63.142;14.482;2023-03-14T09:30:50;14.20;15.10
16532;DHT22;66872;63.142;14.482;2023-03-14T09:33:16;14.20;14.90
16532;DHT22;66872;63.142;14.482;2023-03-14T09:35:42;14.20;14.80
16532;DHT22;66872;63.142;14.482;2023-03-14T09:38:08;14.20;15.00
16532;DHT22;66872;63.142;14.482;2023-03-14T09:40:37;14.20;14.80
16532;DHT22;66872;63.142;14.482;2023-03-14T09:43:04;14.20;14.50
16532;DHT22;66872;63.142;14.482;2023-03-14T09:45:36;14.20;14.90
16532;DHT22;66872;63.142;14.482;2023-03-14T09:48:03;14.20;15.10
16532;DHT22;66872;63.142;14.482;2023-03-14T09:50:42;14.30;15.20
16532;DHT22;66872;63.142;14.482;2023-03-14T09:53:13;14.30;14.80
16532;DHT22;66872;63.142;14.482;2023-03-14T09:55:42;14.30;15.10
16532;DHT22;66872;63.142;14.482;2023-03-14T09:58:17;14.30;15.00
16532;DHT22;66872;63.142;14.482;2023-03-14T10:00:44;14.30;14.90
16532;DHT22;66872;63.142;14.482;2023-03-14T10:05:41;14.30;14.90
16532;DHT22;66872;63.142;14.482;2023-03-14T10:08:10;14.30;14.90
16532;DHT22;66872;63.142;14.482;2023-03-14T10:10:36;14.30;14.80
16532;DHT22;66872;63.142;14.482;2023-03-14T10:13:22;14.30;15.20
16532;DHT22;66872;63.142;14.482;2023-03-14T10:15:55;14.30;15.30
16532;DHT22;66872;63.142;14.482;2023-03-14T10:18:23;14.40;15.50
16532;DHT22;66872;63.142;14.482;2023-03-14T10:20:51;14.40;15.70
16532;DHT22;66872;63.142;14.482;2023-03-14T10:23:29;14.40;15.90
16532;DHT22;66872;63.142;14.482;2023-03-14T10:26:23;14.40;15.90
16532;DHT22;66872;63.142;14.482;2023-03-14T10:28:53;14.40;15.80
16532;DHT22;66872;63.142;14.482;2023-03-14T10:31:26;14.40;15.80
16532;DHT22;66872;63.142;14.482;2023-03-14T10:34:03;14.40;16.10
16532;DHT22;66872;63.142;14.482;2023-03-14T10:36:31;14.50;16.00
16532;DHT22;66872;63.142;14.482;2023-03-14T10:39:15;14.50;15.70
16532;DHT22;66872;63.142;14.482;2023-03-14T10:41:50;14.50;15.70
16532;DHT22;66872;63.142;14.482;2023-03-14T10:44:21;14.50;16.00
16532;DHT22;66872;63.142;14.482;2023-03-14T10:47:01;14.50;15.80
16532;DHT22;66872;63.142;14.482;2023-03-14T10:49:35;14.60;15.80
16532;DHT22;66872;63.142;14.482;2023-03-14T10:52:25;14.60;15.90
16532;DHT22;66872;63.142;14.482;2023-03-14T10:55:18;14.70;15.90
16532;DHT22;66872;63.142;14.482;2023-03-14T10:57:43;14.70;16.50
16532;DHT22;66872;63.142;14.482;2023-03-14T11:08:09;14.90;17.30
16532;DHT22;66872;63.142;14.482;2023-03-14T11:10:40;14.90;16.40
16532;DHT22;66872;63.142;14.482;2023-03-14T11:13:26;14.90;16.40
16532;DHT22;66872;63.142;14.482;2023-03-14T11:16:09;14.90;16.20
16532;DHT22;66872;63.142;14.482;2023-03-14T11:35:37;14.80;15.60
16532;DHT22;66872;63.142;14.482;2023-03-14T11:40:47;14.80;15.20
16532;DHT22;66872;63.142;14.482;2023-03-14T11:43:20;14.80;15.30
16532;DHT22;66872;63.142;14.482;2023-03-14T11:45:48;14.80;15.30
16532;DHT22;66872;63.142;14.482;2023-03-14T11:50:42;14.80;15.20
16532;DHT22;66872;63.142;14.482;2023-03-14T11:53:09;14.90;15.50
16532;DHT22;66872;63.142;14.482;2023-03-14T11:55:40;14.90;15.30
16532;DHT22;66872;63.142;14.482;2023-03-14T12:00:46;15.00;15.20
16532;DHT22;66872;63.142;14.482;2023-03-14T12:03:39;15.00;15.40
16532;DHT22;66872;63.142;14.482;2023-03-14T12:06:28;15.00;15.50
16532;DHT22;66872;63.142;14.482;2023-03-14T12:09:06;15.00;15.40
16532;DHT22;66872;63.142;14.482;2023-03-14T12:11:52;15.00;15.40
16532;DHT22;66872;63.142;14.482;2023-03-14T12:14:27;15.00;15.30
16532;DHT22;66872;63.142;14.482;2023-03-14T12:17:04;15.00;15.20
16532;DHT22;66872;63.142;14.482;2023-03-14T12:19:40;15.00;15.30
16532;DHT22;66872;63.142;14.482;2023-03-14T12:25:06;15.00;15.40
16532;DHT22;66872;63.142;14.482;2023-03-14T12:30:34;15.10;15.50
16532;DHT22;66872;63.142;14.482;2023-03-14T12:35:40;15.10;15.50
16532;DHT22;66872;63.142;14.482;2023-03-14T12:38:45;15.10;15.50
16532;DHT22;66872;63.142;14.482;2023-03-14T12:41:23;15.10;15.30
16532;DHT22;66872;63.142;14.482;2023-03-14T12:43:50;15.10;15.30
16532;DHT22;66872;63.142;14.482;2023-03-14T12:46:25;15.10;15.50
16532;DHT22;66872;63.142;14.482;2023-03-14T12:51:35;15.20;15.50
16532;DHT22;66872;63.142;14.482;2023-03-14T13:04:48;15.20;16.50
16532;DHT22;66872;63.142;14.482;2023-03-14T13:12:41;15.10;16.10
16532;DHT22;66872;63.142;14.482;2023-03-14T13:15:28;15.10;16.20
16532;DHT22;66872;63.142;14.482;2023-03-14T13:18:01;15.10;16.20
16532;DHT22;66872;63.142;14.482;2023-03-14T13:20:31;15.00;16.60
16532;DHT22;66872;63.142;14.482;2023-03-14T13:22:59;15.00;16.20
16532;DHT22;66872;63.142;14.482;2023-03-14T13:25:29;15.00;16.10
16532;DHT22;66872;63.142;14.482;2023-03-14T13:27:55;15.00;16.10
16532;DHT22;66872;63.142;14.482;2023-03-14T13:30:38;15.00;16.00
16532;DHT22;66872;63.142;14.482;2023-03-14T13:33:05;15.00;16.20
16532;DHT22;66872;63.142;14.482;2023-03-14T13:35:40;14.90;16.30
16532;DHT22;66872;63.142;14.482;2023-03-14T13:38:19;14.90;16.20
16532;DHT22;66872;63.142;14.482;2023-03-14T13:40:46;14.90;16.30
16532;DHT22;66872;63.142;14.482;2023-03-14T13:46:27;14.90;16.40
16532;DHT22;66872;63.142;14.482;2023-03-14T13:48:38;14.90;16.40
16532;DHT22;66872;63.142;14.482;2023-03-14T13:51:09;14.90;16.60
16532;DHT22;66872;63.142;14.482;2023-03-14T13:53:53;14.80;16.40
16532;DHT22;66872;63.142;14.482;2023-03-14T13:56:25;14.80;16.50
16532;DHT22;66872;63.142;14.482;2023-03-14T13:58:51;14.80;16.50
16532;DHT22;66872;63.142;14.482;2023-03-14T14:03:56;14.80;16.70
16532;DHT22;66872;63.142;14.482;2023-03-14T14:06:38;14.80;16.80
16532;DHT22;66872;63.142;14.482;2023-03-14T14:09:16;14.80;16.70
16532;DHT22;66872;63.142;14.482;2023-03-14T14:11:51;14.80;16.90
16532;DHT22;66872;63.142;14.482;2023-03-14T14:17:00;14.80;16.80
16532;DHT22;66872;63.142;14.482;2023-03-14T14:19:28;14.80;16.90
16532;DHT22;66872;63.142;14.482;2023-03-14T14:21:56;14.70;16.90
16532;DHT22;66872;63.142;14.482;2023-03-14T14:24:25;14.70;17.00
16532;DHT22;66872;63.142;14.482;2023-03-14T14:26:58;14.70;17.00
16532;DHT22;66872;63.142;14.482;2023-03-14T14:29:30;14.70;17.00
16532;DHT22;66872;63.142;14.482;2023-03-14T14:32:13;14.70;17.10
16532;DHT22;66872;63.142;14.482;2023-03-14T14:37:18;14.70;17.10
16532;DHT22;66872;63.142;14.482;2023-03-14T14:39:45;14.70;17.20
16532;DHT22;66872;63.142;14.482;2023-03-14T14:42:15;14.70;17.30
16532;DHT22;66872;63.142;14.482;2023-03-14T14:44:42;14.70;17.30
16532;DHT22;66872;63.142;14.482;2023-03-14T14:47:13;14.60;17.30
16532;DHT22;66872;63.142;14.482;2023-03-14T14:49:39;14.70;17.40
16532;DHT22;66872;63.142;14.482;2023-03-14T14:54:53;14.60;17.20
16532;DHT22;66872;63.142;14.482;2023-03-14T14:57:33;14.60;17.20
16532;DHT22;66872;63.142;14.482;2023-03-14T15:00:07;14.60;17.30
16532;DHT22;66872;63.142;14.482;2023-03-14T15:05:21;14.50;17.30
16532;DHT22;66872;63.142;14.482;2023-03-14T15:07:48;14.50;17.30
16532;DHT22;66872;63.142;14.482;2023-03-14T15:10:19;14.50;17.30
16532;DHT22;66872;63.142;14.482;2023-03-14T15:12:45;14.50;17.30
16532;DHT22;66872;63.142;14.482;2023-03-14T15:15:14;14.50;17.30
16532;DHT22;66872;63.142;14.482;2023-03-14T15:17:40;14.50;17.40
16532;DHT22;66872;63.142;14.482;2023-03-14T15:20:11;14.40;17.40
16532;DHT22;66872;63.142;14.482;2023-03-14T15:22:39;14.40;17.40
16532;DHT22;66872;63.142;14.482;2023-03-14T15:25:05;14.40;17.40
16532;DHT22;66872;63.142;14.482;2023-03-14T15:27:31;14.40;17.50
16532;DHT22;66872;63.142;14.482;2023-03-14T15:29:57;14.40;17.60
16532;DHT22;66872;63.142;14.482;2023-03-14T15:32:24;14.30;17.40
16532;DHT22;66872;63.142;14.482;2023-03-14T15:34:54;14.40;17.50
16532;DHT22;66872;63.142;14.482;2023-03-14T15:37:20;14.30;17.40
16532;DHT22;66872;63.142;14.482;2023-03-14T15:39:46;14.30;17.50
16532;DHT22;66872;63.142;14.482;2023-03-14T15:42:11;14.30;17.60
16532;DHT22;66872;63.142;14.482;2023-03-14T15:44:37;14.30;17.60
16532;DHT22;66872;63.142;14.482;2023-03-14T15:47:05;14.30;17.60
16532;DHT22;66872;63.142;14.482;2023-03-14T15:49:31;14.20;17.50
16532;DHT22;66872;63.142;14.482;2023-03-14T15:51:58;14.20;17.70
16532;DHT22;66872;63.142;14.482;2023-03-14T15:54:24;14.20;17.70
16532;DHT22;66872;63.142;14.482;2023-03-14T15:56:57;14.20;17.70
16532;DHT22;66872;63.142;14.482;2023-03-14T15:59:23;14.10;17.70
16532;DHT22;66872;63.142;14.482;2023-03-14T16:01:49;14.10;17.80
16532;DHT22;66872;63.142;14.482;2023-03-14T16:04:15;14.10;17.70
16532;DHT22;66872;63.142;14.482;2023-03-14T16:06:40;14.00;17.60
16532;DHT22;66872;63.142;14.482;2023-03-14T16:09:06;14.00;17.70
16532;DHT22;66872;63.142;14.482;2023-03-14T16:11:32;14.00;17.80
16532;DHT22;66872;63.142;14.482;2023-03-14T16:13:57;14.00;17.80
16532;DHT22;66872;63.142;14.482;2023-03-14T16:16:23;13.90;17.80
16532;DHT22;66872;63.142;14.482;2023-03-14T16:18:49;13.90;17.80
16532;DHT22;66872;63.142;14.482;2023-03-14T16:21:17;13.90;17.90
16532;DHT22;66872;63.142;14.482;2023-03-14T16:23:43;13.90;17.90
16532;DHT22;66872;63.142;14.482;2023-03-14T16:26:19;13.80;18.00
16532;DHT22;66872;63.142;14.482;2023-03-14T16:28:46;13.80;18.00
16532;DHT22;66872;63.142;14.482;2023-03-14T16:31:15;13.80;18.10
16532;DHT22;66872;63.142;14.482;2023-03-14T16:33:41;13.80;18.10
16532;DHT22;66872;63.142;14.482;2023-03-14T16:36:10;13.70;18.10
16532;DHT22;66872;63.142;14.482;2023-03-14T16:38:37;13.70;18.20
16532;DHT22;66872;63.142;14.482;2023-03-14T16:41:06;13.60;18.20
16532;DHT22;66872;63.142;14.482;2023-03-14T16:43:34;13.60;18.30
16532;DHT22;66872;63.142;14.482;2023-03-14T16:46:01;13.60;18.40
16532;DHT22;66872;63.142;14.482;2023-03-14T16:48:28;13.60;18.60
16532;DHT22;66872;63.142;14.482;2023-03-14T16:50:54;13.60;18.60